METARs


 

Curacao


TNCC 050700Z 12014KT 9999 FEW018 27/23 Q1013 NOSIG

 

Aruba


TNCA 050700Z 11017KT 9999 SCT018 27/24 Q1012 NOSIG

 

Bonaire


TNCB 050655Z AUTO 09015KT 9999 FEW016/// SCT019/// 27/24 Q1013

 

 

TAFs


 

Curacao


TAF TNCC 050515Z 0506/0606 10015KT 9999 SCT018

Aruba


TAF TNCA 050515Z 0506/0606 09021KT 9999 SCT018

Bonaire


TAF TAF TNCB 050432Z 0506/0612 09017KT 9999 SCT022 PROB30 TEMPO 0610/0612 6000 SHRA SCT018CB

 

 

Caribbean Surface Analysis